sensor_id;sensor_type;location;lat;lon;timestamp;temperature;humidity
22321;DHT22;11328;53.928;18.522;2024-02-28T00:00:32;7.30;99.90
22321;DHT22;11328;53.928;18.522;2024-02-28T00:02:59;7.40;99.90
22321;DHT22;11328;53.928;18.522;2024-02-28T00:05:26;7.40;99.90
22321;DHT22;11328;53.928;18.522;2024-02-28T00:07:53;7.40;99.90
22321;DHT22;11328;53.928;18.522;2024-02-28T00:10:20;7.50;99.90
22321;DHT22;11328;53.928;18.522;2024-02-28T00:12:47;7.40;99.90
22321;DHT22;11328;53.928;18.522;2024-02-28T00:15:15;7.30;99.90
22321;DHT22;11328;53.928;18.522;2024-02-28T00:17:42;7.30;99.90
22321;DHT22;11328;53.928;18.522;2024-02-28T00:20:09;7.40;99.90
22321;DHT22;11328;53.928;18.522;2024-02-28T00:22:38;7.40;99.90
22321;DHT22;11328;53.928;18.522;2024-02-28T00:25:05;7.50;99.90
22321;DHT22;11328;53.928;18.522;2024-02-28T00:27:34;7.50;99.90
22321;DHT22;11328;53.928;18.522;2024-02-28T00:30:03;7.50;99.90
22321;DHT22;11328;53.928;18.522;2024-02-28T00:32:33;7.50;99.90
22321;DHT22;11328;53.928;18.522;2024-02-28T00:35:00;7.50;99.90
22321;DHT22;11328;53.928;18.522;2024-02-28T00:37:27;7.50;99.90
22321;DHT22;11328;53.928;18.522;2024-02-28T00:39:55;7.50;99.90
22321;DHT22;11328;53.928;18.522;2024-02-28T00:42:22;7.50;99.90
22321;DHT22;11328;53.928;18.522;2024-02-28T00:44:49;7.50;99.90
22321;DHT22;11328;53.928;18.522;2024-02-28T00:47:16;7.60;99.90
22321;DHT22;11328;53.928;18.522;2024-02-28T00:49:43;7.60;99.90
22321;DHT22;11328;53.928;18.522;2024-02-28T00:52:10;7.60;99.90
22321;DHT22;11328;53.928;18.522;2024-02-28T00:54:37;7.50;99.90
22321;DHT22;11328;53.928;18.522;2024-02-28T00:57:04;7.60;99.90
22321;DHT22;11328;53.928;18.522;2024-02-28T00:59:31;7.60;99.90
22321;DHT22;11328;53.928;18.522;2024-02-28T01:01:58;7.40;99.90
22321;DHT22;11328;53.928;18.522;2024-02-28T01:04:25;7.50;99.90
22321;DHT22;11328;53.928;18.522;2024-02-28T01:06:53;7.40;99.90
22321;DHT22;11328;53.928;18.522;2024-02-28T01:09:21;7.20;99.90
22321;DHT22;11328;53.928;18.522;2024-02-28T01:11:48;7.20;99.90
22321;DHT22;11328;53.928;18.522;2024-02-28T01:14:15;7.10;99.90
22321;DHT22;11328;53.928;18.522;2024-02-28T01:16:42;7.20;99.90
22321;DHT22;11328;53.928;18.522;2024-02-28T01:19:09;7.20;99.90
22321;DHT22;11328;53.928;18.522;2024-02-28T01:21:36;7.10;99.90
22321;DHT22;11328;53.928;18.522;2024-02-28T01:24:05;7.10;99.90
22321;DHT22;11328;53.928;18.522;2024-02-28T01:26:32;7.10;99.90
22321;DHT22;11328;53.928;18.522;2024-02-28T01:28:59;7.10;99.90
22321;DHT22;11328;53.928;18.522;2024-02-28T01:31:26;7.10;99.90
22321;DHT22;11328;53.928;18.522;2024-02-28T01:33:53;7.10;99.90
22321;DHT22;11328;53.928;18.522;2024-02-28T01:36:22;7.10;99.90
22321;DHT22;11328;53.928;18.522;2024-02-28T01:38:49;7.10;99.90
22321;DHT22;11328;53.928;18.522;2024-02-28T01:41:16;7.00;99.90
22321;DHT22;11328;53.928;18.522;2024-02-28T01:43:43;7.00;99.90
22321;DHT22;11328;53.928;18.522;2024-02-28T01:46:25;7.10;99.90
22321;DHT22;11328;53.928;18.522;2024-02-28T01:48:53;7.10;99.90
22321;DHT22;11328;53.928;18.522;2024-02-28T01:51:26;7.00;99.90
22321;DHT22;11328;53.928;18.522;2024-02-28T01:53:56;7.00;99.90
22321;DHT22;11328;53.928;18.522;2024-02-28T01:56:24;7.00;99.90
22321;DHT22;11328;53.928;18.522;2024-02-28T01:58:54;6.90;99.90
22321;DHT22;11328;53.928;18.522;2024-02-28T02:01:22;7.00;99.90
22321;DHT22;11328;53.928;18.522;2024-02-28T02:03:49;7.00;99.90
22321;DHT22;11328;53.928;18.522;2024-02-28T02:06:16;7.00;99.90
22321;DHT22;11328;53.928;18.522;2024-02-28T02:08:44;7.00;99.90
22321;DHT22;11328;53.928;18.522;2024-02-28T02:11:17;7.10;99.90
22321;DHT22;11328;53.928;18.522;2024-02-28T02:13:52;7.10;99.90
22321;DHT22;11328;53.928;18.522;2024-02-28T02:16:20;7.10;99.90
22321;DHT22;11328;53.928;18.522;2024-02-28T02:18:57;7.20;99.90
22321;DHT22;11328;53.928;18.522;2024-02-28T02:21:30;7.10;99.90
22321;DHT22;11328;53.928;18.522;2024-02-28T02:24:01;7.10;99.90
22321;DHT22;11328;53.928;18.522;2024-02-28T02:26:28;7.20;99.90
22321;DHT22;11328;53.928;18.522;2024-02-28T02:28:55;7.20;99.90
22321;DHT22;11328;53.928;18.522;2024-02-28T02:31:22;7.20;99.90
22321;DHT22;11328;53.928;18.522;2024-02-28T02:33:49;7.20;99.90
22321;DHT22;11328;53.928;18.522;2024-02-28T02:36:18;7.30;99.90
22321;DHT22;11328;53.928;18.522;2024-02-28T02:38:47;7.20;99.90
22321;DHT22;11328;53.928;18.522;2024-02-28T02:41:13;7.20;99.90
22321;DHT22;11328;53.928;18.522;2024-02-28T02:43:40;7.20;99.90
22321;DHT22;11328;53.928;18.522;2024-02-28T02:46:07;7.30;99.90
22321;DHT22;11328;53.928;18.522;2024-02-28T02:48:34;7.20;99.90
22321;DHT22;11328;53.928;18.522;2024-02-28T02:51:02;7.10;99.90
22321;DHT22;11328;53.928;18.522;2024-02-28T02:53:29;7.10;99.90
22321;DHT22;11328;53.928;18.522;2024-02-28T02:55:56;7.10;99.90
22321;DHT22;11328;53.928;18.522;2024-02-28T02:58:23;7.10;99.90
22321;DHT22;11328;53.928;18.522;2024-02-28T03:00:50;7.20;99.90
22321;DHT22;11328;53.928;18.522;2024-02-28T03:03:17;7.10;99.90
22321;DHT22;11328;53.928;18.522;2024-02-28T03:05:44;7.20;99.90
22321;DHT22;11328;53.928;18.522;2024-02-28T03:08:11;7.20;99.90
22321;DHT22;11328;53.928;18.522;2024-02-28T03:10:39;7.10;99.90
22321;DHT22;11328;53.928;18.522;2024-02-28T03:13:06;7.00;99.90
22321;DHT22;11328;53.928;18.522;2024-02-28T03:15:34;7.00;99.90
22321;DHT22;11328;53.928;18.522;2024-02-28T03:18:01;6.90;99.90
22321;DHT22;11328;53.928;18.522;2024-02-28T03:20:28;6.90;99.90
22321;DHT22;11328;53.928;18.522;2024-02-28T03:22:55;7.00;99.90
22321;DHT22;11328;53.928;18.522;2024-02-28T03:25:22;7.00;99.90
22321;DHT22;11328;53.928;18.522;2024-02-28T03:27:49;7.00;99.90
22321;DHT22;11328;53.928;18.522;2024-02-28T03:30:17;7.00;99.90
22321;DHT22;11328;53.928;18.522;2024-02-28T03:32:44;7.10;99.90
22321;DHT22;11328;53.928;18.522;2024-02-28T03:35:11;7.10;99.90
22321;DHT22;11328;53.928;18.522;2024-02-28T03:37:38;7.10;99.90
22321;DHT22;11328;53.928;18.522;2024-02-28T03:40:05;7.10;99.90
22321;DHT22;11328;53.928;18.522;2024-02-28T03:42:33;7.10;99.90
22321;DHT22;11328;53.928;18.522;2024-02-28T03:45:00;7.10;99.90
22321;DHT22;11328;53.928;18.522;2024-02-28T03:47:27;7.10;99.90
22321;DHT22;11328;53.928;18.522;2024-02-28T03:49:54;7.20;99.90
22321;DHT22;11328;53.928;18.522;2024-02-28T03:52:23;7.20;99.90
22321;DHT22;11328;53.928;18.522;2024-02-28T03:54:50;7.10;99.90
22321;DHT22;11328;53.928;18.522;2024-02-28T03:57:17;7.20;99.90
22321;DHT22;11328;53.928;18.522;2024-02-28T03:59:45;7.10;99.90
22321;DHT22;11328;53.928;18.522;2024-02-28T04:02:12;7.00;99.90
22321;DHT22;11328;53.928;18.522;2024-02-28T04:04:39;6.90;99.90
22321;DHT22;11328;53.928;18.522;2024-02-28T04:07:06;6.80;99.90
22321;DHT22;11328;53.928;18.522;2024-02-28T04:09:33;6.80;99.90
22321;DHT22;11328;53.928;18.522;2024-02-28T04:12:00;6.90;99.90
22321;DHT22;11328;53.928;18.522;2024-02-28T04:14:27;7.00;99.90
22321;DHT22;11328;53.928;18.522;2024-02-28T04:16:54;7.00;99.90
22321;DHT22;11328;53.928;18.522;2024-02-28T04:19:21;6.90;99.90
22321;DHT22;11328;53.928;18.522;2024-02-28T04:21:48;7.00;99.90
22321;DHT22;11328;53.928;18.522;2024-02-28T04:24:15;7.00;99.90
22321;DHT22;11328;53.928;18.522;2024-02-28T04:26:43;7.10;99.90
22321;DHT22;11328;53.928;18.522;2024-02-28T04:29:10;7.10;99.90
22321;DHT22;11328;53.928;18.522;2024-02-28T04:31:40;7.20;99.90
22321;DHT22;11328;53.928;18.522;2024-02-28T04:34:08;7.20;99.90
22321;DHT22;11328;53.928;18.522;2024-02-28T04:36:35;7.20;99.90
22321;DHT22;11328;53.928;18.522;2024-02-28T04:39:02;7.30;99.90
22321;DHT22;11328;53.928;18.522;2024-02-28T04:41:31;7.30;99.90
22321;DHT22;11328;53.928;18.522;2024-02-28T04:43:58;7.30;99.90
22321;DHT22;11328;53.928;18.522;2024-02-28T04:46:25;7.30;99.90
22321;DHT22;11328;53.928;18.522;2024-02-28T04:48:51;7.20;99.90
22321;DHT22;11328;53.928;18.522;2024-02-28T04:51:19;7.10;99.90
22321;DHT22;11328;53.928;18.522;2024-02-28T04:53:46;7.10;99.90
22321;DHT22;11328;53.928;18.522;2024-02-28T04:56:13;7.10;99.90
22321;DHT22;11328;53.928;18.522;2024-02-28T04:58:40;7.00;99.90
22321;DHT22;11328;53.928;18.522;2024-02-28T05:01:07;6.90;99.90
22321;DHT22;11328;53.928;18.522;2024-02-28T05:03:34;6.80;99.90
22321;DHT22;11328;53.928;18.522;2024-02-28T05:06:01;6.80;99.90
22321;DHT22;11328;53.928;18.522;2024-02-28T05:08:29;6.80;99.90
22321;DHT22;11328;53.928;18.522;2024-02-28T05:10:56;6.60;99.90
22321;DHT22;11328;53.928;18.522;2024-02-28T05:13:23;6.40;99.90
22321;DHT22;11328;53.928;18.522;2024-02-28T05:15:51;6.50;99.90
22321;DHT22;11328;53.928;18.522;2024-02-28T05:18:18;6.50;99.90
22321;DHT22;11328;53.928;18.522;2024-02-28T05:20:45;6.60;99.90
22321;DHT22;11328;53.928;18.522;2024-02-28T05:23:13;6.60;99.90
22321;DHT22;11328;53.928;18.522;2024-02-28T05:25:40;6.70;99.90
22321;DHT22;11328;53.928;18.522;2024-02-28T05:28:07;6.60;99.90
22321;DHT22;11328;53.928;18.522;2024-02-28T05:30:34;6.60;99.90
22321;DHT22;11328;53.928;18.522;2024-02-28T05:33:01;6.60;99.90
22321;DHT22;11328;53.928;18.522;2024-02-28T05:35:28;6.60;99.90
22321;DHT22;11328;53.928;18.522;2024-02-28T05:37:56;6.60;99.90
22321;DHT22;11328;53.928;18.522;2024-02-28T05:40:23;6.70;99.90
22321;DHT22;11328;53.928;18.522;2024-02-28T05:42:51;6.70;99.90
22321;DHT22;11328;53.928;18.522;2024-02-28T05:45:18;6.70;99.90
22321;DHT22;11328;53.928;18.522;2024-02-28T05:47:45;6.80;99.90
22321;DHT22;11328;53.928;18.522;2024-02-28T05:50:12;6.70;99.90
22321;DHT22;11328;53.928;18.522;2024-02-28T05:52:43;6.70;99.90
22321;DHT22;11328;53.928;18.522;2024-02-28T05:55:10;6.80;99.90
22321;DHT22;11328;53.928;18.522;2024-02-28T05:57:37;6.70;99.90
22321;DHT22;11328;53.928;18.522;2024-02-28T06:00:05;6.60;99.90
22321;DHT22;11328;53.928;18.522;2024-02-28T06:02:37;6.60;99.90
22321;DHT22;11328;53.928;18.522;2024-02-28T06:05:05;6.60;99.90
22321;DHT22;11328;53.928;18.522;2024-02-28T06:07:32;6.70;99.90
22321;DHT22;11328;53.928;18.522;2024-02-28T06:09:59;6.70;99.90
22321;DHT22;11328;53.928;18.522;2024-02-28T06:12:27;6.60;99.90
22321;DHT22;11328;53.928;18.522;2024-02-28T06:14:54;6.70;99.90
22321;DHT22;11328;53.928;18.522;2024-02-28T06:17:21;6.70;99.90
22321;DHT22;11328;53.928;18.522;2024-02-28T06:19:48;6.80;99.90
22321;DHT22;11328;53.928;18.522;2024-02-28T06:22:15;6.70;99.90
22321;DHT22;11328;53.928;18.522;2024-02-28T06:24:45;6.60;99.90
22321;DHT22;11328;53.928;18.522;2024-02-28T06:27:13;6.50;99.90
22321;DHT22;11328;53.928;18.522;2024-02-28T06:29:40;6.50;99.90
22321;DHT22;11328;53.928;18.522;2024-02-28T06:32:07;6.60;99.90
22321;DHT22;11328;53.928;18.522;2024-02-28T06:34:34;6.60;99.90
22321;DHT22;11328;53.928;18.522;2024-02-28T06:37:01;6.70;99.90
22321;DHT22;11328;53.928;18.522;2024-02-28T06:39:28;6.60;99.90
22321;DHT22;11328;53.928;18.522;2024-02-28T06:41:55;6.60;99.90
22321;DHT22;11328;53.928;18.522;2024-02-28T06:44:22;6.60;99.90
22321;DHT22;11328;53.928;18.522;2024-02-28T06:46:50;6.60;99.90
22321;DHT22;11328;53.928;18.522;2024-02-28T06:49:17;6.70;99.90
22321;DHT22;11328;53.928;18.522;2024-02-28T06:51:44;6.60;99.90
22321;DHT22;11328;53.928;18.522;2024-02-28T06:54:12;6.60;99.90
22321;DHT22;11328;53.928;18.522;2024-02-28T06:56:39;6.60;99.90
22321;DHT22;11328;53.928;18.522;2024-02-28T06:59:06;6.70;99.90
22321;DHT22;11328;53.928;18.522;2024-02-28T07:01:33;6.70;99.90
22321;DHT22;11328;53.928;18.522;2024-02-28T07:04:01;6.60;99.90
22321;DHT22;11328;53.928;18.522;2024-02-28T07:06:28;6.50;99.90
22321;DHT22;11328;53.928;18.522;2024-02-28T07:08:55;6.60;99.90
22321;DHT22;11328;53.928;18.522;2024-02-28T07:11:22;6.60;99.90
22321;DHT22;11328;53.928;18.522;2024-02-28T07:13:49;6.60;99.90
22321;DHT22;11328;53.928;18.522;2024-02-28T07:16:16;6.70;99.90
22321;DHT22;11328;53.928;18.522;2024-02-28T07:18:43;6.80;99.90
22321;DHT22;11328;53.928;18.522;2024-02-28T07:21:10;6.70;99.90
22321;DHT22;11328;53.928;18.522;2024-02-28T07:23:40;6.80;99.90
22321;DHT22;11328;53.928;18.522;2024-02-28T07:26:07;7.00;99.90
22321;DHT22;11328;53.928;18.522;2024-02-28T07:28:45;7.00;99.90
22321;DHT22;11328;53.928;18.522;2024-02-28T07:31:16;7.00;99.90
22321;DHT22;11328;53.928;18.522;2024-02-28T07:33:44;7.00;99.90
22321;DHT22;11328;53.928;18.522;2024-02-28T07:36:12;7.00;99.90
22321;DHT22;11328;53.928;18.522;2024-02-28T07:38:41;7.10;99.90
22321;DHT22;11328;53.928;18.522;2024-02-28T07:41:08;7.20;99.90
22321;DHT22;11328;53.928;18.522;2024-02-28T07:43:35;7.20;99.90
22321;DHT22;11328;53.928;18.522;2024-02-28T07:46:09;7.30;99.90
22321;DHT22;11328;53.928;18.522;2024-02-28T07:48:38;7.40;99.90
22321;DHT22;11328;53.928;18.522;2024-02-28T07:51:09;7.40;99.90
22321;DHT22;11328;53.928;18.522;2024-02-28T07:53:36;7.50;99.90
22321;DHT22;11328;53.928;18.522;2024-02-28T07:56:03;7.60;99.90
22321;DHT22;11328;53.928;18.522;2024-02-28T07:58:30;7.60;99.90
22321;DHT22;11328;53.928;18.522;2024-02-28T08:00:57;7.60;99.90
22321;DHT22;11328;53.928;18.522;2024-02-28T08:03:24;7.60;99.90
22321;DHT22;11328;53.928;18.522;2024-02-28T08:05:52;7.60;99.90
22321;DHT22;11328;53.928;18.522;2024-02-28T08:08:19;7.40;99.90
22321;DHT22;11328;53.928;18.522;2024-02-28T08:10:46;7.40;99.90
22321;DHT22;11328;53.928;18.522;2024-02-28T08:13:15;7.40;99.90
22321;DHT22;11328;53.928;18.522;2024-02-28T08:15:42;7.50;99.90
22321;DHT22;11328;53.928;18.522;2024-02-28T08:18:10;7.60;99.90
22321;DHT22;11328;53.928;18.522;2024-02-28T08:20:40;7.60;99.90
22321;DHT22;11328;53.928;18.522;2024-02-28T08:23:07;7.60;99.90
22321;DHT22;11328;53.928;18.522;2024-02-28T08:25:34;7.60;99.90
22321;DHT22;11328;53.928;18.522;2024-02-28T08:28:01;7.50;99.90
22321;DHT22;11328;53.928;18.522;2024-02-28T08:30:30;7.50;99.90
22321;DHT22;11328;53.928;18.522;2024-02-28T08:32:57;7.50;99.90
22321;DHT22;11328;53.928;18.522;2024-02-28T08:35:24;7.50;99.90
22321;DHT22;11328;53.928;18.522;2024-02-28T08:37:52;7.50;99.90
22321;DHT22;11328;53.928;18.522;2024-02-28T08:40:19;7.40;99.90
22321;DHT22;11328;53.928;18.522;2024-02-28T08:42:47;7.40;99.90
22321;DHT22;11328;53.928;18.522;2024-02-28T08:45:15;7.40;99.90
22321;DHT22;11328;53.928;18.522;2024-02-28T08:47:42;7.40;99.90
22321;DHT22;11328;53.928;18.522;2024-02-28T08:50:09;7.40;99.90
22321;DHT22;11328;53.928;18.522;2024-02-28T08:52:36;7.50;99.90
22321;DHT22;11328;53.928;18.522;2024-02-28T08:55:03;7.50;99.90
22321;DHT22;11328;53.928;18.522;2024-02-28T08:57:31;7.60;99.90
22321;DHT22;11328;53.928;18.522;2024-02-28T08:59:58;7.60;99.90
22321;DHT22;11328;53.928;18.522;2024-02-28T09:02:26;7.70;99.90
22321;DHT22;11328;53.928;18.522;2024-02-28T09:04:53;7.70;99.90
22321;DHT22;11328;53.928;18.522;2024-02-28T09:07:23;7.80;99.90
22321;DHT22;11328;53.928;18.522;2024-02-28T09:09:50;7.70;99.90
22321;DHT22;11328;53.928;18.522;2024-02-28T09:12:17;7.60;99.90
22321;DHT22;11328;53.928;18.522;2024-02-28T09:14:45;7.60;99.90
22321;DHT22;11328;53.928;18.522;2024-02-28T09:17:12;7.60;99.90
22321;DHT22;11328;53.928;18.522;2024-02-28T09:19:39;7.60;99.90
22321;DHT22;11328;53.928;18.522;2024-02-28T09:22:06;7.70;99.90
22321;DHT22;11328;53.928;18.522;2024-02-28T09:24:33;7.60;99.90
22321;DHT22;11328;53.928;18.522;2024-02-28T09:27:03;7.60;99.90
22321;DHT22;11328;53.928;18.522;2024-02-28T09:29:30;7.70;99.90
22321;DHT22;11328;53.928;18.522;2024-02-28T09:31:57;7.60;99.90
22321;DHT22;11328;53.928;18.522;2024-02-28T09:34:24;7.60;99.90
22321;DHT22;11328;53.928;18.522;2024-02-28T09:36:52;7.60;99.90
22321;DHT22;11328;53.928;18.522;2024-02-28T09:39:19;7.70;99.90
22321;DHT22;11328;53.928;18.522;2024-02-28T09:41:48;7.80;99.90
22321;DHT22;11328;53.928;18.522;2024-02-28T09:44:16;7.60;99.90
22321;DHT22;11328;53.928;18.522;2024-02-28T09:46:45;7.60;99.90
22321;DHT22;11328;53.928;18.522;2024-02-28T09:49:13;7.60;99.90
22321;DHT22;11328;53.928;18.522;2024-02-28T09:51:43;7.70;99.90
22321;DHT22;11328;53.928;18.522;2024-02-28T09:54:12;7.70;99.90
22321;DHT22;11328;53.928;18.522;2024-02-28T09:56:40;7.70;99.90
22321;DHT22;11328;53.928;18.522;2024-02-28T09:59:07;7.70;99.90
22321;DHT22;11328;53.928;18.522;2024-02-28T10:01:40;7.80;99.90
22321;DHT22;11328;53.928;18.522;2024-02-28T10:04:10;7.90;99.90
22321;DHT22;11328;53.928;18.522;2024-02-28T10:06:40;7.90;99.90
22321;DHT22;11328;53.928;18.522;2024-02-28T10:09:08;7.90;99.90
22321;DHT22;11328;53.928;18.522;2024-02-28T10:11:37;7.90;99.90
22321;DHT22;11328;53.928;18.522;2024-02-28T10:14:04;8.10;99.90
22321;DHT22;11328;53.928;18.522;2024-02-28T10:16:31;8.00;99.90
22321;DHT22;11328;53.928;18.522;2024-02-28T10:18:58;8.00;99.90
22321;DHT22;11328;53.928;18.522;2024-02-28T10:21:26;8.00;99.90
22321;DHT22;11328;53.928;18.522;2024-02-28T10:23:53;8.10;99.90
22321;DHT22;11328;53.928;18.522;2024-02-28T10:26:20;8.20;99.90
22321;DHT22;11328;53.928;18.522;2024-02-28T10:28:47;8.20;99.90
22321;DHT22;11328;53.928;18.522;2024-02-28T10:31:14;8.20;99.90
22321;DHT22;11328;53.928;18.522;2024-02-28T10:33:41;8.20;99.90
22321;DHT22;11328;53.928;18.522;2024-02-28T10:36:09;8.10;99.90
22321;DHT22;11328;53.928;18.522;2024-02-28T10:38:38;8.00;99.90
22321;DHT22;11328;53.928;18.522;2024-02-28T10:41:06;8.00;99.90
22321;DHT22;11328;53.928;18.522;2024-02-28T10:43:38;7.80;99.90
22321;DHT22;11328;53.928;18.522;2024-02-28T10:46:07;7.70;99.90
22321;DHT22;11328;53.928;18.522;2024-02-28T10:48:55;7.80;99.90
22321;DHT22;11328;53.928;18.522;2024-02-28T10:51:24;8.00;99.90
22321;DHT22;11328;53.928;18.522;2024-02-28T10:54:12;8.10;99.90
22321;DHT22;11328;53.928;18.522;2024-02-28T10:56:42;8.10;99.90
22321;DHT22;11328;53.928;18.522;2024-02-28T10:59:11;8.10;99.90
22321;DHT22;11328;53.928;18.522;2024-02-28T11:01:41;8.20;99.90
22321;DHT22;11328;53.928;18.522;2024-02-28T11:04:12;8.30;99.90
22321;DHT22;11328;53.928;18.522;2024-02-28T11:06:48;8.30;99.90
22321;DHT22;11328;53.928;18.522;2024-02-28T11:09:24;8.40;99.90
22321;DHT22;11328;53.928;18.522;2024-02-28T11:11:55;8.50;99.90
22321;DHT22;11328;53.928;18.522;2024-02-28T11:14:23;8.50;99.90
22321;DHT22;11328;53.928;18.522;2024-02-28T11:17:04;8.60;99.90
22321;DHT22;11328;53.928;18.522;2024-02-28T11:19:33;8.50;99.90
22321;DHT22;11328;53.928;18.522;2024-02-28T11:22:04;8.50;99.90
22321;DHT22;11328;53.928;18.522;2024-02-28T11:24:33;8.50;99.90
22321;DHT22;11328;53.928;18.522;2024-02-28T11:27:03;8.60;99.90
22321;DHT22;11328;53.928;18.522;2024-02-28T11:29:30;8.60;99.90
22321;DHT22;11328;53.928;18.522;2024-02-28T11:31:58;8.60;99.90
22321;DHT22;11328;53.928;18.522;2024-02-28T11:34:25;8.60;99.90
22321;DHT22;11328;53.928;18.522;2024-02-28T11:36:52;8.50;99.90
22321;DHT22;11328;53.928;18.522;2024-02-28T11:39:22;8.60;99.90
22321;DHT22;11328;53.928;18.522;2024-02-28T11:41:52;8.60;99.90
22321;DHT22;11328;53.928;18.522;2024-02-28T11:44:20;8.70;99.90
22321;DHT22;11328;53.928;18.522;2024-02-28T11:46:50;8.70;99.90
22321;DHT22;11328;53.928;18.522;2024-02-28T11:49:17;8.90;99.90
22321;DHT22;11328;53.928;18.522;2024-02-28T11:51:45;9.00;99.90
22321;DHT22;11328;53.928;18.522;2024-02-28T11:54:12;9.10;99.90
22321;DHT22;11328;53.928;18.522;2024-02-28T11:56:40;9.20;99.90
22321;DHT22;11328;53.928;18.522;2024-02-28T11:59:11;9.20;99.90
22321;DHT22;11328;53.928;18.522;2024-02-28T12:01:40;9.30;99.90
22321;DHT22;11328;53.928;18.522;2024-02-28T12:04:11;9.40;99.90
22321;DHT22;11328;53.928;18.522;2024-02-28T12:06:39;9.50;99.90
22321;DHT22;11328;53.928;18.522;2024-02-28T12:09:09;9.50;99.90
22321;DHT22;11328;53.928;18.522;2024-02-28T12:11:47;9.60;99.90
22321;DHT22;11328;53.928;18.522;2024-02-28T12:14:14;9.60;99.90
22321;DHT22;11328;53.928;18.522;2024-02-28T12:16:41;9.60;99.90
22321;DHT22;11328;53.928;18.522;2024-02-28T12:19:12;9.70;99.90
22321;DHT22;11328;53.928;18.522;2024-02-28T12:21:45;9.70;99.90
22321;DHT22;11328;53.928;18.522;2024-02-28T12:24:13;9.60;99.90
22321;DHT22;11328;53.928;18.522;2024-02-28T12:26:40;9.60;99.90
22321;DHT22;11328;53.928;18.522;2024-02-28T12:29:08;9.60;99.90
22321;DHT22;11328;53.928;18.522;2024-02-28T12:31:37;9.70;99.90
22321;DHT22;11328;53.928;18.522;2024-02-28T12:34:05;9.60;99.90
22321;DHT22;11328;53.928;18.522;2024-02-28T12:36:32;9.70;99.90
22321;DHT22;11328;53.928;18.522;2024-02-28T12:39:01;9.80;99.90
22321;DHT22;11328;53.928;18.522;2024-02-28T12:41:28;9.80;99.90
22321;DHT22;11328;53.928;18.522;2024-02-28T12:43:55;9.80;99.90
22321;DHT22;11328;53.928;18.522;2024-02-28T12:46:22;9.80;99.90
22321;DHT22;11328;53.928;18.522;2024-02-28T12:48:49;9.90;99.90
22321;DHT22;11328;53.928;18.522;2024-02-28T12:51:39;9.80;99.90
22321;DHT22;11328;53.928;18.522;2024-02-28T12:54:12;9.80;99.90
22321;DHT22;11328;53.928;18.522;2024-02-28T12:56:41;9.80;99.90
22321;DHT22;11328;53.928;18.522;2024-02-28T12:59:12;9.80;99.90
22321;DHT22;11328;53.928;18.522;2024-02-28T13:01:40;9.80;99.90
22321;DHT22;11328;53.928;18.522;2024-02-28T13:04:07;9.80;99.90
22321;DHT22;11328;53.928;18.522;2024-02-28T13:06:34;9.70;99.90
22321;DHT22;11328;53.928;18.522;2024-02-28T13:09:01;9.60;99.90
22321;DHT22;11328;53.928;18.522;2024-02-28T13:11:28;9.60;99.90
22321;DHT22;11328;53.928;18.522;2024-02-28T13:13:56;9.60;99.90
22321;DHT22;11328;53.928;18.522;2024-02-28T13:16:23;9.60;99.90
22321;DHT22;11328;53.928;18.522;2024-02-28T13:18:50;9.60;99.90
22321;DHT22;11328;53.928;18.522;2024-02-28T13:21:17;9.60;99.90
22321;DHT22;11328;53.928;18.522;2024-02-28T13:23:44;9.60;99.90
22321;DHT22;11328;53.928;18.522;2024-02-28T13:26:11;9.50;99.90
22321;DHT22;11328;53.928;18.522;2024-02-28T13:28:45;9.50;99.90
22321;DHT22;11328;53.928;18.522;2024-02-28T13:31:15;9.50;99.90
22321;DHT22;11328;53.928;18.522;2024-02-28T13:33:43;9.50;99.90
22321;DHT22;11328;53.928;18.522;2024-02-28T13:36:10;9.40;99.90
22321;DHT22;11328;53.928;18.522;2024-02-28T13:38:37;9.50;99.90
22321;DHT22;11328;53.928;18.522;2024-02-28T13:41:04;9.50;99.90
22321;DHT22;11328;53.928;18.522;2024-02-28T13:43:32;9.50;99.90
22321;DHT22;11328;53.928;18.522;2024-02-28T13:46:03;9.50;99.90
22321;DHT22;11328;53.928;18.522;2024-02-28T13:48:31;9.50;99.90
22321;DHT22;11328;53.928;18.522;2024-02-28T13:51:00;9.50;99.90
22321;DHT22;11328;53.928;18.522;2024-02-28T13:53:29;9.60;99.90
22321;DHT22;11328;53.928;18.522;2024-02-28T13:55:59;9.60;99.90
22321;DHT22;11328;53.928;18.522;2024-02-28T13:58:26;9.60;99.90
22321;DHT22;11328;53.928;18.522;2024-02-28T14:01:06;9.60;99.90
22321;DHT22;11328;53.928;18.522;2024-02-28T14:03:34;9.60;99.90
22321;DHT22;11328;53.928;18.522;2024-02-28T14:06:07;9.50;99.90
22321;DHT22;11328;53.928;18.522;2024-02-28T14:08:34;9.50;99.90
22321;DHT22;11328;53.928;18.522;2024-02-28T14:11:02;9.50;99.90
22321;DHT22;11328;53.928;18.522;2024-02-28T14:13:30;9.50;99.90
22321;DHT22;11328;53.928;18.522;2024-02-28T14:15:58;9.40;99.90
22321;DHT22;11328;53.928;18.522;2024-02-28T14:18:25;9.30;99.90
22321;DHT22;11328;53.928;18.522;2024-02-28T14:20:52;9.10;99.90
22321;DHT22;11328;53.928;18.522;2024-02-28T14:23:19;9.10;99.90
22321;DHT22;11328;53.928;18.522;2024-02-28T14:25:47;9.10;99.90
22321;DHT22;11328;53.928;18.522;2024-02-28T14:28:14;9.10;99.90
22321;DHT22;11328;53.928;18.522;2024-02-28T14:30:41;8.90;99.90
22321;DHT22;11328;53.928;18.522;2024-02-28T14:33:09;8.70;99.90
22321;DHT22;11328;53.928;18.522;2024-02-28T14:35:40;8.80;99.90
22321;DHT22;11328;53.928;18.522;2024-02-28T14:38:08;8.70;99.90
22321;DHT22;11328;53.928;18.522;2024-02-28T14:40:35;8.60;99.90
22321;DHT22;11328;53.928;18.522;2024-02-28T14:43:02;8.50;99.90
22321;DHT22;11328;53.928;18.522;2024-02-28T14:45:29;8.40;99.90
22321;DHT22;11328;53.928;18.522;2024-02-28T14:47:59;8.30;99.90
22321;DHT22;11328;53.928;18.522;2024-02-28T14:50:26;8.20;99.90
22321;DHT22;11328;53.928;18.522;2024-02-28T14:52:53;8.10;99.90
22321;DHT22;11328;53.928;18.522;2024-02-28T14:55:21;8.10;99.90
22321;DHT22;11328;53.928;18.522;2024-02-28T14:57:48;8.10;99.90
22321;DHT22;11328;53.928;18.522;2024-02-28T15:00:15;8.10;99.90
22321;DHT22;11328;53.928;18.522;2024-02-28T15:02:43;8.00;99.90
22321;DHT22;11328;53.928;18.522;2024-02-28T15:05:12;7.80;99.90
22321;DHT22;11328;53.928;18.522;2024-02-28T15:07:39;7.80;99.90
22321;DHT22;11328;53.928;18.522;2024-02-28T15:10:07;7.80;99.90
22321;DHT22;11328;53.928;18.522;2024-02-28T15:12:34;7.80;99.90
22321;DHT22;11328;53.928;18.522;2024-02-28T15:15:04;7.80;99.90
22321;DHT22;11328;53.928;18.522;2024-02-28T15:17:33;7.80;99.90
22321;DHT22;11328;53.928;18.522;2024-02-28T15:20:03;7.90;99.90
22321;DHT22;11328;53.928;18.522;2024-02-28T15:22:31;7.90;99.90
22321;DHT22;11328;53.928;18.522;2024-02-28T15:25:00;7.90;99.90
22321;DHT22;11328;53.928;18.522;2024-02-28T15:27:27;7.90;99.90
22321;DHT22;11328;53.928;18.522;2024-02-28T15:29:56;7.90;99.90
22321;DHT22;11328;53.928;18.522;2024-02-28T15:32:23;7.90;99.90
22321;DHT22;11328;53.928;18.522;2024-02-28T15:34:50;7.80;99.90